sensor_id;sensor_type;location;lat;lon;timestamp;P1;durP1;ratioP1;P2;durP2;ratioP2
19347;SDS011;9810;52.480;9.806;2023-11-22T00:02:19;5.35;;;3.15;;
19347;SDS011;9810;52.480;9.806;2023-11-22T00:04:46;6.20;;;3.30;;
19347;SDS011;9810;52.480;9.806;2023-11-22T00:07:13;10.33;;;3.57;;
19347;SDS011;9810;52.480;9.806;2023-11-22T00:09:43;4.13;;;2.50;;
19347;SDS011;9810;52.480;9.806;2023-11-22T00:12:12;3.27;;;2.23;;
19347;SDS011;9810;52.480;9.806;2023-11-22T00:14:42;3.43;;;2.60;;
19347;SDS011;9810;52.480;9.806;2023-11-22T00:17:10;3.00;;;2.67;;
19347;SDS011;9810;52.480;9.806;2023-11-22T00:19:37;5.60;;;3.13;;
19347;SDS011;9810;52.480;9.806;2023-11-22T00:22:05;9.33;;;3.27;;
19347;SDS011;9810;52.480;9.806;2023-11-22T00:24:38;5.73;;;2.87;;
19347;SDS011;9810;52.480;9.806;2023-11-22T00:27:07;3.70;;;3.13;;
19347;SDS011;9810;52.480;9.806;2023-11-22T00:29:35;6.07;;;2.87;;
19347;SDS011;9810;52.480;9.806;2023-11-22T00:32:05;5.57;;;2.90;;
19347;SDS011;9810;52.480;9.806;2023-11-22T00:34:32;5.77;;;2.83;;
19347;SDS011;9810;52.480;9.806;2023-11-22T00:37:00;5.40;;;2.97;;
19347;SDS011;9810;52.480;9.806;2023-11-22T00:39:32;9.63;;;3.70;;
19347;SDS011;9810;52.480;9.806;2023-11-22T00:41:59;5.47;;;2.77;;
19347;SDS011;9810;52.480;9.806;2023-11-22T00:44:30;8.00;;;3.03;;
19347;SDS011;9810;52.480;9.806;2023-11-22T00:46:59;3.70;;;2.60;;
19347;SDS011;9810;52.480;9.806;2023-11-22T00:49:27;6.37;;;3.00;;
19347;SDS011;9810;52.480;9.806;2023-11-22T00:51:59;5.67;;;2.93;;
19347;SDS011;9810;52.480;9.806;2023-11-22T00:54:26;4.37;;;2.87;;
19347;SDS011;9810;52.480;9.806;2023-11-22T00:56:54;4.03;;;2.77;;
19347;SDS011;9810;52.480;9.806;2023-11-22T00:59:22;5.73;;;2.40;;
19347;SDS011;9810;52.480;9.806;2023-11-22T01:01:51;6.80;;;2.73;;
19347;SDS011;9810;52.480;9.806;2023-11-22T01:04:18;3.73;;;2.43;;
19347;SDS011;9810;52.480;9.806;2023-11-22T01:06:45;8.47;;;3.73;;
19347;SDS011;9810;52.480;9.806;2023-11-22T01:09:13;6.23;;;3.10;;
19347;SDS011;9810;52.480;9.806;2023-11-22T01:11:40;5.53;;;3.43;;
19347;SDS011;9810;52.480;9.806;2023-11-22T01:14:07;7.63;;;3.10;;
19347;SDS011;9810;52.480;9.806;2023-11-22T01:16:37;4.57;;;2.97;;
19347;SDS011;9810;52.480;9.806;2023-11-22T01:19:06;6.93;;;2.60;;
19347;SDS011;9810;52.480;9.806;2023-11-22T01:21:36;6.00;;;2.93;;
19347;SDS011;9810;52.480;9.806;2023-11-22T01:24:05;3.93;;;3.07;;
19347;SDS011;9810;52.480;9.806;2023-11-22T01:26:35;6.10;;;2.53;;
19347;SDS011;9810;52.480;9.806;2023-11-22T01:29:03;4.07;;;2.93;;
19347;SDS011;9810;52.480;9.806;2023-11-22T01:31:31;9.80;;;4.10;;
19347;SDS011;9810;52.480;9.806;2023-11-22T01:33:58;5.03;;;2.73;;
19347;SDS011;9810;52.480;9.806;2023-11-22T01:36:28;3.80;;;2.70;;
19347;SDS011;9810;52.480;9.806;2023-11-22T01:38:55;4.40;;;2.60;;
19347;SDS011;9810;52.480;9.806;2023-11-22T01:41:22;6.00;;;3.28;;
19347;SDS011;9810;52.480;9.806;2023-11-22T01:43:50;5.20;;;2.90;;
19347;SDS011;9810;52.480;9.806;2023-11-22T01:46:24;4.87;;;3.00;;
19347;SDS011;9810;52.480;9.806;2023-11-22T01:48:52;3.33;;;2.97;;
19347;SDS011;9810;52.480;9.806;2023-11-22T01:51:19;4.83;;;2.70;;
19347;SDS011;9810;52.480;9.806;2023-11-22T01:53:51;4.97;;;3.33;;
19347;SDS011;9810;52.480;9.806;2023-11-22T01:56:19;4.90;;;3.03;;
19347;SDS011;9810;52.480;9.806;2023-11-22T01:58:49;7.67;;;3.00;;
19347;SDS011;9810;52.480;9.806;2023-11-22T02:01:16;7.60;;;3.10;;
19347;SDS011;9810;52.480;9.806;2023-11-22T02:03:45;3.00;;;2.40;;
19347;SDS011;9810;52.480;9.806;2023-11-22T02:06:14;6.13;;;2.70;;
19347;SDS011;9810;52.480;9.806;2023-11-22T02:09:13;4.60;;;2.77;;
19347;SDS011;9810;52.480;9.806;2023-11-22T02:11:40;7.30;;;3.17;;
19347;SDS011;9810;52.480;9.806;2023-11-22T02:14:10;4.20;;;3.03;;
19347;SDS011;9810;52.480;9.806;2023-11-22T02:16:37;6.90;;;3.03;;
19347;SDS011;9810;52.480;9.806;2023-11-22T02:19:08;5.03;;;2.83;;
19347;SDS011;9810;52.480;9.806;2023-11-22T02:21:37;4.63;;;3.27;;
19347;SDS011;9810;52.480;9.806;2023-11-22T02:24:07;4.20;;;3.10;;
19347;SDS011;9810;52.480;9.806;2023-11-22T02:26:35;4.93;;;3.50;;
19347;SDS011;9810;52.480;9.806;2023-11-22T02:29:04;4.87;;;3.37;;
19347;SDS011;9810;52.480;9.806;2023-11-22T02:31:34;5.67;;;3.50;;
19347;SDS011;9810;52.480;9.806;2023-11-22T02:34:01;8.03;;;3.40;;
19347;SDS011;9810;52.480;9.806;2023-11-22T02:36:28;6.67;;;3.23;;
19347;SDS011;9810;52.480;9.806;2023-11-22T02:38:56;5.67;;;3.20;;
19347;SDS011;9810;52.480;9.806;2023-11-22T02:41:26;7.67;;;2.80;;
19347;SDS011;9810;52.480;9.806;2023-11-22T02:43:54;5.93;;;3.03;;
19347;SDS011;9810;52.480;9.806;2023-11-22T02:46:22;8.37;;;3.03;;
19347;SDS011;9810;52.480;9.806;2023-11-22T02:48:49;5.27;;;3.30;;
19347;SDS011;9810;52.480;9.806;2023-11-22T02:51:19;7.73;;;3.60;;
19347;SDS011;9810;52.480;9.806;2023-11-22T02:53:47;7.60;;;3.40;;
19347;SDS011;9810;52.480;9.806;2023-11-22T02:56:16;5.63;;;3.33;;
19347;SDS011;9810;52.480;9.806;2023-11-22T02:58:46;7.23;;;3.50;;
19347;SDS011;9810;52.480;9.806;2023-11-22T03:01:13;4.27;;;3.27;;
19347;SDS011;9810;52.480;9.806;2023-11-22T03:03:40;5.43;;;3.43;;
19347;SDS011;9810;52.480;9.806;2023-11-22T03:06:08;6.63;;;3.40;;
19347;SDS011;9810;52.480;9.806;2023-11-22T03:08:35;4.50;;;2.90;;
19347;SDS011;9810;52.480;9.806;2023-11-22T03:11:03;4.93;;;3.33;;
19347;SDS011;9810;52.480;9.806;2023-11-22T03:13:30;6.40;;;3.33;;
19347;SDS011;9810;52.480;9.806;2023-11-22T03:15:59;4.80;;;3.20;;
19347;SDS011;9810;52.480;9.806;2023-11-22T03:18:28;4.50;;;3.07;;
19347;SDS011;9810;52.480;9.806;2023-11-22T03:20:56;4.00;;;3.10;;
19347;SDS011;9810;52.480;9.806;2023-11-22T03:23:24;5.30;;;3.17;;
19347;SDS011;9810;52.480;9.806;2023-11-22T03:25:52;4.00;;;2.67;;
19347;SDS011;9810;52.480;9.806;2023-11-22T03:28:19;7.30;;;4.10;;
19347;SDS011;9810;52.480;9.806;2023-11-22T03:30:47;8.10;;;3.33;;
19347;SDS011;9810;52.480;9.806;2023-11-22T03:33:16;4.83;;;3.10;;
19347;SDS011;9810;52.480;9.806;2023-11-22T03:35:44;6.80;;;3.27;;
19347;SDS011;9810;52.480;9.806;2023-11-22T03:38:11;4.43;;;3.03;;
19347;SDS011;9810;52.480;9.806;2023-11-22T03:40:40;3.60;;;2.67;;
19347;SDS011;9810;52.480;9.806;2023-11-22T03:43:08;4.83;;;3.23;;
19347;SDS011;9810;52.480;9.806;2023-11-22T03:45:36;4.40;;;2.80;;
19347;SDS011;9810;52.480;9.806;2023-11-22T03:48:08;4.90;;;3.10;;
19347;SDS011;9810;52.480;9.806;2023-11-22T03:50:37;10.37;;;3.33;;
19347;SDS011;9810;52.480;9.806;2023-11-22T03:53:13;3.80;;;2.63;;
19347;SDS011;9810;52.480;9.806;2023-11-22T03:55:41;4.67;;;2.90;;
19347;SDS011;9810;52.480;9.806;2023-11-22T03:58:08;4.03;;;2.67;;
19347;SDS011;9810;52.480;9.806;2023-11-22T04:00:49;4.17;;;2.80;;
19347;SDS011;9810;52.480;9.806;2023-11-22T04:03:17;3.90;;;2.87;;
19347;SDS011;9810;52.480;9.806;2023-11-22T04:08:47;4.80;;;2.70;;
19347;SDS011;9810;52.480;9.806;2023-11-22T04:11:14;4.53;;;3.20;;
19347;SDS011;9810;52.480;9.806;2023-11-22T04:13:43;3.87;;;2.43;;
19347;SDS011;9810;52.480;9.806;2023-11-22T04:16:16;4.80;;;3.10;;
19347;SDS011;9810;52.480;9.806;2023-11-22T04:18:46;5.63;;;2.80;;
19347;SDS011;9810;52.480;9.806;2023-11-22T04:21:13;3.60;;;2.53;;
19347;SDS011;9810;52.480;9.806;2023-11-22T04:23:40;4.37;;;2.70;;
19347;SDS011;9810;52.480;9.806;2023-11-22T04:26:10;3.20;;;2.43;;
19347;SDS011;9810;52.480;9.806;2023-11-22T04:28:37;10.43;;;4.83;;
19347;SDS011;9810;52.480;9.806;2023-11-22T04:31:04;17.47;;;8.37;;
19347;SDS011;9810;52.480;9.806;2023-11-22T04:33:33;18.03;;;8.03;;
19347;SDS011;9810;52.480;9.806;2023-11-22T04:36:01;22.20;;;9.37;;
19347;SDS011;9810;52.480;9.806;2023-11-22T04:38:28;22.20;;;8.93;;
19347;SDS011;9810;52.480;9.806;2023-11-22T04:40:58;18.73;;;8.30;;
19347;SDS011;9810;52.480;9.806;2023-11-22T04:43:27;25.07;;;9.30;;
19347;SDS011;9810;52.480;9.806;2023-11-22T04:45:54;24.23;;;9.90;;
19347;SDS011;9810;52.480;9.806;2023-11-22T04:48:23;20.70;;;8.10;;
19347;SDS011;9810;52.480;9.806;2023-11-22T04:50:52;16.13;;;6.67;;
19347;SDS011;9810;52.480;9.806;2023-11-22T04:53:54;17.43;;;7.30;;
19347;SDS011;9810;52.480;9.806;2023-11-22T04:56:21;16.70;;;6.93;;
19347;SDS011;9810;52.480;9.806;2023-11-22T04:58:50;10.87;;;5.33;;
19347;SDS011;9810;52.480;9.806;2023-11-22T05:04:19;11.17;;;4.77;;
19347;SDS011;9810;52.480;9.806;2023-11-22T05:09:52;7.70;;;4.23;;
19347;SDS011;9810;52.480;9.806;2023-11-22T05:15:40;5.53;;;3.30;;
19347;SDS011;9810;52.480;9.806;2023-11-22T05:18:08;4.60;;;3.23;;
19347;SDS011;9810;52.480;9.806;2023-11-22T05:20:39;8.50;;;3.57;;
19347;SDS011;9810;52.480;9.806;2023-11-22T05:23:06;5.43;;;3.00;;
19347;SDS011;9810;52.480;9.806;2023-11-22T05:25:34;5.87;;;2.57;;
19347;SDS011;9810;52.480;9.806;2023-11-22T05:28:01;7.10;;;3.37;;
19347;SDS011;9810;52.480;9.806;2023-11-22T05:30:28;5.60;;;3.00;;
19347;SDS011;9810;52.480;9.806;2023-11-22T05:39:30;4.23;;;2.67;;
19347;SDS011;9810;52.480;9.806;2023-11-22T05:41:57;7.27;;;3.37;;
19347;SDS011;9810;52.480;9.806;2023-11-22T05:44:25;3.70;;;2.40;;
19347;SDS011;9810;52.480;9.806;2023-11-22T05:46:53;6.30;;;2.90;;
19347;SDS011;9810;52.480;9.806;2023-11-22T05:49:20;5.47;;;3.20;;
19347;SDS011;9810;52.480;9.806;2023-11-22T05:51:47;4.77;;;3.43;;
19347;SDS011;9810;52.480;9.806;2023-11-22T05:54:15;4.87;;;3.03;;
19347;SDS011;9810;52.480;9.806;2023-11-22T05:56:44;4.70;;;2.93;;
19347;SDS011;9810;52.480;9.806;2023-11-22T05:59:11;4.90;;;3.10;;
19347;SDS011;9810;52.480;9.806;2023-11-22T06:01:40;3.70;;;2.60;;
19347;SDS011;9810;52.480;9.806;2023-11-22T06:04:07;8.47;;;2.80;;
19347;SDS011;9810;52.480;9.806;2023-11-22T06:06:35;4.33;;;3.00;;
19347;SDS011;9810;52.480;9.806;2023-11-22T06:09:04;6.77;;;2.97;;
19347;SDS011;9810;52.480;9.806;2023-11-22T06:11:32;4.30;;;2.80;;
19347;SDS011;9810;52.480;9.806;2023-11-22T06:14:01;4.30;;;2.83;;
19347;SDS011;9810;52.480;9.806;2023-11-22T06:16:30;5.17;;;2.77;;
19347;SDS011;9810;52.480;9.806;2023-11-22T06:18:58;4.40;;;2.70;;
19347;SDS011;9810;52.480;9.806;2023-11-22T06:21:25;4.20;;;2.57;;
19347;SDS011;9810;52.480;9.806;2023-11-22T06:23:54;5.83;;;2.93;;
19347;SDS011;9810;52.480;9.806;2023-11-22T06:26:23;10.90;;;3.73;;
19347;SDS011;9810;52.480;9.806;2023-11-22T06:28:50;3.97;;;2.80;;
19347;SDS011;9810;52.480;9.806;2023-11-22T06:31:19;5.47;;;3.77;;
19347;SDS011;9810;52.480;9.806;2023-11-22T06:33:46;5.97;;;3.50;;
19347;SDS011;9810;52.480;9.806;2023-11-22T06:36:14;7.47;;;3.97;;
19347;SDS011;9810;52.480;9.806;2023-11-22T06:38:41;9.00;;;4.17;;
19347;SDS011;9810;52.480;9.806;2023-11-22T06:41:08;6.27;;;4.10;;
19347;SDS011;9810;52.480;9.806;2023-11-22T06:43:36;8.50;;;3.57;;
19347;SDS011;9810;52.480;9.806;2023-11-22T06:46:03;9.03;;;3.73;;
19347;SDS011;9810;52.480;9.806;2023-11-22T06:48:33;6.97;;;3.60;;
19347;SDS011;9810;52.480;9.806;2023-11-22T06:51:00;8.40;;;3.97;;
19347;SDS011;9810;52.480;9.806;2023-11-22T06:53:27;8.47;;;3.40;;
19347;SDS011;9810;52.480;9.806;2023-11-22T06:55:55;7.00;;;3.10;;
19347;SDS011;9810;52.480;9.806;2023-11-22T06:58:22;6.33;;;3.30;;
19347;SDS011;9810;52.480;9.806;2023-11-22T07:00:49;4.70;;;3.70;;
19347;SDS011;9810;52.480;9.806;2023-11-22T07:03:17;7.67;;;3.53;;
19347;SDS011;9810;52.480;9.806;2023-11-22T07:05:48;5.43;;;3.13;;
19347;SDS011;9810;52.480;9.806;2023-11-22T07:08:15;5.20;;;2.47;;
19347;SDS011;9810;52.480;9.806;2023-11-22T07:10:44;4.27;;;2.37;;
19347;SDS011;9810;52.480;9.806;2023-11-22T07:13:11;4.20;;;2.63;;
19347;SDS011;9810;52.480;9.806;2023-11-22T07:15:39;5.93;;;2.37;;
19347;SDS011;9810;52.480;9.806;2023-11-22T07:18:06;3.47;;;2.27;;
19347;SDS011;9810;52.480;9.806;2023-11-22T07:20:35;5.23;;;2.10;;
19347;SDS011;9810;52.480;9.806;2023-11-22T07:23:05;5.23;;;2.30;;
19347;SDS011;9810;52.480;9.806;2023-11-22T07:25:38;3.10;;;2.67;;
19347;SDS011;9810;52.480;9.806;2023-11-22T07:28:06;8.13;;;3.40;;
19347;SDS011;9810;52.480;9.806;2023-11-22T07:30:34;6.47;;;3.27;;
19347;SDS011;9810;52.480;9.806;2023-11-22T07:33:03;7.73;;;2.63;;
19347;SDS011;9810;52.480;9.806;2023-11-22T07:35:31;4.93;;;2.60;;
19347;SDS011;9810;52.480;9.806;2023-11-22T07:37:58;6.10;;;3.00;;
19347;SDS011;9810;52.480;9.806;2023-11-22T07:40:28;4.13;;;2.73;;
19347;SDS011;9810;52.480;9.806;2023-11-22T07:42:55;5.37;;;3.00;;
19347;SDS011;9810;52.480;9.806;2023-11-22T07:45:22;5.77;;;2.63;;
19347;SDS011;9810;52.480;9.806;2023-11-22T07:47:49;3.07;;;2.40;;
19347;SDS011;9810;52.480;9.806;2023-11-22T07:50:18;5.23;;;2.83;;
19347;SDS011;9810;52.480;9.806;2023-11-22T07:52:47;5.50;;;2.57;;
19347;SDS011;9810;52.480;9.806;2023-11-22T07:55:14;5.83;;;2.57;;
19347;SDS011;9810;52.480;9.806;2023-11-22T07:57:44;3.83;;;2.87;;
19347;SDS011;9810;52.480;9.806;2023-11-22T08:00:12;5.30;;;3.00;;
19347;SDS011;9810;52.480;9.806;2023-11-22T08:02:44;4.87;;;2.70;;
19347;SDS011;9810;52.480;9.806;2023-11-22T08:05:11;6.43;;;3.23;;
19347;SDS011;9810;52.480;9.806;2023-11-22T08:07:40;7.27;;;2.97;;
19347;SDS011;9810;52.480;9.806;2023-11-22T08:10:09;6.27;;;2.67;;
19347;SDS011;9810;52.480;9.806;2023-11-22T08:12:45;4.17;;;2.70;;
19347;SDS011;9810;52.480;9.806;2023-11-22T08:15:13;4.70;;;2.40;;
19347;SDS011;9810;52.480;9.806;2023-11-22T08:17:41;2.70;;;2.23;;
19347;SDS011;9810;52.480;9.806;2023-11-22T08:20:09;3.90;;;2.77;;
19347;SDS011;9810;52.480;9.806;2023-11-22T08:22:38;4.97;;;2.67;;
19347;SDS011;9810;52.480;9.806;2023-11-22T08:25:06;4.57;;;2.83;;
19347;SDS011;9810;52.480;9.806;2023-11-22T08:27:37;4.87;;;2.93;;
19347;SDS011;9810;52.480;9.806;2023-11-22T08:30:09;7.97;;;3.30;;
19347;SDS011;9810;52.480;9.806;2023-11-22T08:32:38;3.40;;;3.10;;
19347;SDS011;9810;52.480;9.806;2023-11-22T08:35:07;5.00;;;3.30;;
19347;SDS011;9810;52.480;9.806;2023-11-22T08:37:34;7.20;;;3.20;;
19347;SDS011;9810;52.480;9.806;2023-11-22T08:40:03;4.73;;;2.80;;
19347;SDS011;9810;52.480;9.806;2023-11-22T08:42:31;6.30;;;3.30;;
19347;SDS011;9810;52.480;9.806;2023-11-22T08:44:59;5.87;;;3.43;;
19347;SDS011;9810;52.480;9.806;2023-11-22T08:47:28;9.10;;;4.00;;
19347;SDS011;9810;52.480;9.806;2023-11-22T08:49:55;4.50;;;3.13;;
19347;SDS011;9810;52.480;9.806;2023-11-22T08:52:24;5.13;;;3.53;;
19347;SDS011;9810;52.480;9.806;2023-11-22T08:54:51;7.53;;;3.03;;
19347;SDS011;9810;52.480;9.806;2023-11-22T08:57:18;4.50;;;2.93;;
19347;SDS011;9810;52.480;9.806;2023-11-22T08:59:45;6.07;;;4.20;;
19347;SDS011;9810;52.480;9.806;2023-11-22T09:02:13;6.83;;;3.40;;
19347;SDS011;9810;52.480;9.806;2023-11-22T09:04:42;6.67;;;3.80;;
19347;SDS011;9810;52.480;9.806;2023-11-22T09:07:09;4.43;;;2.70;;
19347;SDS011;9810;52.480;9.806;2023-11-22T09:09:39;2.97;;;2.47;;
19347;SDS011;9810;52.480;9.806;2023-11-22T09:12:08;2.73;;;2.40;;
19347;SDS011;9810;52.480;9.806;2023-11-22T09:14:38;8.07;;;3.00;;
19347;SDS011;9810;52.480;9.806;2023-11-22T09:17:06;5.50;;;2.70;;
19347;SDS011;9810;52.480;9.806;2023-11-22T09:19:34;4.13;;;2.57;;
19347;SDS011;9810;52.480;9.806;2023-11-22T09:22:04;6.50;;;3.00;;
19347;SDS011;9810;52.480;9.806;2023-11-22T09:24:34;4.20;;;2.20;;
19347;SDS011;9810;52.480;9.806;2023-11-22T09:27:02;2.97;;;2.50;;
19347;SDS011;9810;52.480;9.806;2023-11-22T09:29:31;6.30;;;2.30;;
19347;SDS011;9810;52.480;9.806;2023-11-22T09:31:59;2.93;;;2.47;;
19347;SDS011;9810;52.480;9.806;2023-11-22T09:34:27;3.63;;;2.47;;
19347;SDS011;9810;52.480;9.806;2023-11-22T09:36:55;3.90;;;2.63;;
19347;SDS011;9810;52.480;9.806;2023-11-22T09:39:25;4.27;;;2.53;;
19347;SDS011;9810;52.480;9.806;2023-11-22T09:41:52;3.73;;;2.50;;
19347;SDS011;9810;52.480;9.806;2023-11-22T09:44:20;2.87;;;2.20;;
19347;SDS011;9810;52.480;9.806;2023-11-22T09:46:48;3.10;;;2.43;;
19347;SDS011;9810;52.480;9.806;2023-11-22T09:49:20;5.00;;;2.50;;
19347;SDS011;9810;52.480;9.806;2023-11-22T09:51:48;3.20;;;2.23;;
19347;SDS011;9810;52.480;9.806;2023-11-22T09:54:16;4.20;;;2.33;;
19347;SDS011;9810;52.480;9.806;2023-11-22T09:56:47;5.47;;;2.30;;
19347;SDS011;9810;52.480;9.806;2023-11-22T09:59:16;3.83;;;2.03;;
19347;SDS011;9810;52.480;9.806;2023-11-22T10:01:44;2.83;;;2.07;;
19347;SDS011;9810;52.480;9.806;2023-11-22T10:04:11;3.87;;;2.00;;
19347;SDS011;9810;52.480;9.806;2023-11-22T10:06:39;2.47;;;2.17;;
19347;SDS011;9810;52.480;9.806;2023-11-22T10:09:11;2.10;;;1.90;;
19347;SDS011;9810;52.480;9.806;2023-11-22T10:11:39;2.40;;;1.90;;
19347;SDS011;9810;52.480;9.806;2023-11-22T10:14:09;3.37;;;2.10;;
19347;SDS011;9810;52.480;9.806;2023-11-22T10:16:37;4.43;;;2.20;;
19347;SDS011;9810;52.480;9.806;2023-11-22T10:19:04;2.60;;;2.00;;
19347;SDS011;9810;52.480;9.806;2023-11-22T10:21:32;3.27;;;2.33;;
19347;SDS011;9810;52.480;9.806;2023-11-22T10:24:00;2.83;;;2.17;;
19347;SDS011;9810;52.480;9.806;2023-11-22T10:26:28;3.47;;;2.27;;
19347;SDS011;9810;52.480;9.806;2023-11-22T10:28:56;3.47;;;2.67;;
19347;SDS011;9810;52.480;9.806;2023-11-22T10:31:25;4.53;;;2.90;;
19347;SDS011;9810;52.480;9.806;2023-11-22T10:33:53;5.33;;;2.80;;
19347;SDS011;9810;52.480;9.806;2023-11-22T10:36:21;3.87;;;2.87;;
19347;SDS011;9810;52.480;9.806;2023-11-22T10:38:49;5.27;;;3.20;;
19347;SDS011;9810;52.480;9.806;2023-11-22T10:41:16;4.50;;;3.03;;
19347;SDS011;9810;52.480;9.806;2023-11-22T10:43:44;4.70;;;3.10;;
19347;SDS011;9810;52.480;9.806;2023-11-22T10:46:12;5.90;;;3.67;;
19347;SDS011;9810;52.480;9.806;2023-11-22T10:48:41;4.97;;;3.20;;
19347;SDS011;9810;52.480;9.806;2023-11-22T10:51:09;6.43;;;3.40;;
19347;SDS011;9810;52.480;9.806;2023-11-22T10:53:42;6.90;;;3.30;;
19347;SDS011;9810;52.480;9.806;2023-11-22T10:56:14;4.67;;;2.77;;
19347;SDS011;9810;52.480;9.806;2023-11-22T10:58:47;3.40;;;2.70;;
19347;SDS011;9810;52.480;9.806;2023-11-22T11:01:15;3.03;;;2.60;;
19347;SDS011;9810;52.480;9.806;2023-11-22T11:03:50;7.00;;;3.27;;
19347;SDS011;9810;52.480;9.806;2023-11-22T11:06:20;3.00;;;2.33;;
19347;SDS011;9810;52.480;9.806;2023-11-22T11:08:53;7.77;;;3.20;;
19347;SDS011;9810;52.480;9.806;2023-11-22T11:11:27;3.77;;;3.10;;
19347;SDS011;9810;52.480;9.806;2023-11-22T11:13:59;8.47;;;4.10;;
19347;SDS011;9810;52.480;9.806;2023-11-22T11:16:31;7.43;;;3.23;;
19347;SDS011;9810;52.480;9.806;2023-11-22T11:19:01;11.17;;;3.20;;
19347;SDS011;9810;52.480;9.806;2023-11-22T11:21:29;3.83;;;2.90;;
19347;SDS011;9810;52.480;9.806;2023-11-22T11:23:56;4.87;;;2.97;;
19347;SDS011;9810;52.480;9.806;2023-11-22T11:26:27;7.40;;;3.37;;
19347;SDS011;9810;52.480;9.806;2023-11-22T11:28:55;5.90;;;3.60;;
19347;SDS011;9810;52.480;9.806;2023-11-22T11:31:22;4.00;;;3.23;;
19347;SDS011;9810;52.480;9.806;2023-11-22T11:33:53;3.70;;;2.87;;
19347;SDS011;9810;52.480;9.806;2023-11-22T11:36:23;6.07;;;3.50;;
19347;SDS011;9810;52.480;9.806;2023-11-22T11:38:51;4.17;;;3.00;;
19347;SDS011;9810;52.480;9.806;2023-11-22T11:41:22;4.07;;;2.80;;
19347;SDS011;9810;52.480;9.806;2023-11-22T11:43:51;4.33;;;2.80;;
19347;SDS011;9810;52.480;9.806;2023-11-22T11:46:18;5.30;;;3.20;;
19347;SDS011;9810;52.480;9.806;2023-11-22T11:48:48;4.43;;;3.10;;
19347;SDS011;9810;52.480;9.806;2023-11-22T11:51:19;4.70;;;3.30;;
19347;SDS011;9810;52.480;9.806;2023-11-22T11:53:49;4.40;;;2.87;;
19347;SDS011;9810;52.480;9.806;2023-11-22T11:56:16;4.43;;;2.87;;
19347;SDS011;9810;52.480;9.806;2023-11-22T11:58:44;4.70;;;3.03;;
19347;SDS011;9810;52.480;9.806;2023-11-22T12:01:13;3.37;;;2.47;;
19347;SDS011;9810;52.480;9.806;2023-11-22T12:03:41;3.90;;;2.97;;
19347;SDS011;9810;52.480;9.806;2023-11-22T12:06:09;4.23;;;3.07;;
19347;SDS011;9810;52.480;9.806;2023-11-22T12:08:37;5.10;;;3.27;;
19347;SDS011;9810;52.480;9.806;2023-11-22T12:11:06;4.37;;;3.03;;
19347;SDS011;9810;52.480;9.806;2023-11-22T12:13:33;4.97;;;3.07;;
19347;SDS011;9810;52.480;9.806;2023-11-22T12:16:03;7.40;;;3.27;;
19347;SDS011;9810;52.480;9.806;2023-11-22T12:18:39;5.00;;;3.10;;
19347;SDS011;9810;52.480;9.806;2023-11-22T12:21:08;8.17;;;3.70;;
19347;SDS011;9810;52.480;9.806;2023-11-22T12:23:38;8.73;;;3.53;;
19347;SDS011;9810;52.480;9.806;2023-11-22T12:26:09;7.77;;;3.73;;
19347;SDS011;9810;52.480;9.806;2023-11-22T12:28:36;6.43;;;4.30;;
19347;SDS011;9810;52.480;9.806;2023-11-22T12:31:06;6.83;;;3.83;;
19347;SDS011;9810;52.480;9.806;2023-11-22T12:33:34;5.17;;;3.63;;
19347;SDS011;9810;52.480;9.806;2023-11-22T12:36:02;13.83;;;5.53;;
19347;SDS011;9810;52.480;9.806;2023-11-22T12:38:29;10.60;;;4.90;;
19347;SDS011;9810;52.480;9.806;2023-11-22T12:40:57;7.50;;;4.57;;
19347;SDS011;9810;52.480;9.806;2023-11-22T12:43:26;8.53;;;4.17;;
19347;SDS011;9810;52.480;9.806;2023-11-22T12:46:02;11.90;;;4.40;;
19347;SDS011;9810;52.480;9.806;2023-11-22T12:48:31;15.93;;;5.30;;
19347;SDS011;9810;52.480;9.806;2023-11-22T12:50:59;8.80;;;4.23;;
19347;SDS011;9810;52.480;9.806;2023-11-22T12:53:26;10.23;;;3.37;;
19347;SDS011;9810;52.480;9.806;2023-11-22T12:55:54;8.77;;;3.70;;
19347;SDS011;9810;52.480;9.806;2023-11-22T12:58:22;17.90;;;4.70;;
19347;SDS011;9810;52.480;9.806;2023-11-22T13:00:51;18.97;;;5.90;;
19347;SDS011;9810;52.480;9.806;2023-11-22T13:03:23;13.47;;;5.03;;
19347;SDS011;9810;52.480;9.806;2023-11-22T13:05:50;10.73;;;5.10;;
19347;SDS011;9810;52.480;9.806;2023-11-22T13:08:18;6.40;;;4.00;;
19347;SDS011;9810;52.480;9.806;2023-11-22T13:10:47;7.47;;;3.57;;
19347;SDS011;9810;52.480;9.806;2023-11-22T13:13:19;9.77;;;3.73;;
19347;SDS011;9810;52.480;9.806;2023-11-22T13:15:46;14.00;;;5.23;;
19347;SDS011;9810;52.480;9.806;2023-11-22T13:18:16;19.10;;;5.50;;
19347;SDS011;9810;52.480;9.806;2023-11-22T13:20:43;16.00;;;4.80;;
19347;SDS011;9810;52.480;9.806;2023-11-22T13:23:11;10.80;;;5.07;;
19347;SDS011;9810;52.480;9.806;2023-11-22T13:25:38;14.33;;;5.50;;
19347;SDS011;9810;52.480;9.806;2023-11-22T13:28:07;16.50;;;5.57;;
19347;SDS011;9810;52.480;9.806;2023-11-22T13:30:34;17.00;;;6.03;;
19347;SDS011;9810;52.480;9.806;2023-11-22T13:33:02;24.93;;;6.47;;
19347;SDS011;9810;52.480;9.806;2023-11-22T13:35:32;16.00;;;5.60;;
19347;SDS011;9810;52.480;9.806;2023-11-22T13:38:06;20.70;;;6.93;;
19347;SDS011;9810;52.480;9.806;2023-11-22T13:49:40;8.60;;;4.70;;
19347;SDS011;9810;52.480;9.806;2023-11-22T13:52:10;8.17;;;4.47;;
19347;SDS011;9810;52.480;9.806;2023-11-22T13:54:37;8.23;;;4.63;;
19347;SDS011;9810;52.480;9.806;2023-11-22T13:57:05;9.30;;;4.70;;
19347;SDS011;9810;52.480;9.806;2023-11-22T13:59:32;9.20;;;4.90;;
19347;SDS011;9810;52.480;9.806;2023-11-22T14:01:59;9.87;;;5.07;;
19347;SDS011;9810;52.480;9.806;2023-11-22T14:04:27;8.13;;;5.07;;
19347;SDS011;9810;52.480;9.806;2023-11-22T14:06:54;10.50;;;4.67;;
19347;SDS011;9810;52.480;9.806;2023-11-22T14:09:23;7.93;;;4.87;;
19347;SDS011;9810;52.480;9.806;2023-11-22T14:11:50;7.87;;;4.40;;
19347;SDS011;9810;52.480;9.806;2023-11-22T14:14:18;7.00;;;4.60;;
19347;SDS011;9810;52.480;9.806;2023-11-22T14:16:45;5.70;;;4.33;;
19347;SDS011;9810;52.480;9.806;2023-11-22T14:19:14;5.47;;;4.13;;
19347;SDS011;9810;52.480;9.806;2023-11-22T14:21:41;6.07;;;4.00;;
19347;SDS011;9810;52.480;9.806;2023-11-22T14:24:08;8.17;;;3.90;;
19347;SDS011;9810;52.480;9.806;2023-11-22T14:26:38;7.50;;;4.60;;
19347;SDS011;9810;52.480;9.806;2023-11-22T14:29:05;6.20;;;4.00;;
19347;SDS011;9810;52.480;9.806;2023-11-22T14:31:32;7.43;;;3.70;;
19347;SDS011;9810;52.480;9.806;2023-11-22T14:34:00;6.37;;;4.37;;
19347;SDS011;9810;52.480;9.806;2023-11-22T14:36:30;6.27;;;4.33;;
19347;SDS011;9810;52.480;9.806;2023-11-22T14:38:57;9.63;;;4.20;;
19347;SDS011;9810;52.480;9.806;2023-11-22T14:41:25;5.73;;;3.90;;
19347;SDS011;9810;52.480;9.806;2023-11-22T14:43:55;6.40;;;4.63;;
19347;SDS011;9810;52.480;9.806;2023-11-22T14:46:22;8.18;;;5.53;;
19347;SDS011;9810;52.480;9.806;2023-11-22T14:48:50;5.97;;;4.50;;
19347;SDS011;9810;52.480;9.806;2023-11-22T14:51:18;6.23;;;4.30;;
19347;SDS011;9810;52.480;9.806;2023-11-22T14:53:45;6.73;;;4.33;;
19347;SDS011;9810;52.480;9.806;2023-11-22T14:56:12;7.97;;;4.97;;
19347;SDS011;9810;52.480;9.806;2023-11-22T14:58:40;8.03;;;4.30;;
19347;SDS011;9810;52.480;9.806;2023-11-22T15:01:09;7.57;;;4.17;;
19347;SDS011;9810;52.480;9.806;2023-11-22T15:03:36;5.97;;;4.30;;
19347;SDS011;9810;52.480;9.806;2023-11-22T15:06:03;8.60;;;5.07;;
19347;SDS011;9810;52.480;9.806;2023-11-22T15:08:31;6.57;;;4.50;;
19347;SDS011;9810;52.480;9.806;2023-11-22T15:10:58;6.80;;;4.50;;
19347;SDS011;9810;52.480;9.806;2023-11-22T15:13:26;6.57;;;4.50;;
19347;SDS011;9810;52.480;9.806;2023-11-22T15:15:53;7.80;;;4.50;;
19347;SDS011;9810;52.480;9.806;2023-11-22T15:18:23;4.87;;;3.77;;
19347;SDS011;9810;52.480;9.806;2023-11-22T15:20:52;7.70;;;4.40;;
19347;SDS011;9810;52.480;9.806;2023-11-22T15:23:19;9.73;;;4.67;;
19347;SDS011;9810;52.480;9.806;2023-11-22T15:25:46;8.67;;;4.73;;
19347;SDS011;9810;52.480;9.806;2023-11-22T15:28:14;5.70;;;4.13;;
19347;SDS011;9810;52.480;9.806;2023-11-22T15:30:47;4.60;;;3.90;;
19347;SDS011;9810;52.480;9.806;2023-11-22T15:33:15;5.83;;;4.23;;
19347;SDS011;9810;52.480;9.806;2023-11-22T15:35:45;6.60;;;4.10;;
19347;SDS011;9810;52.480;9.806;2023-11-22T15:38:13;8.10;;;4.30;;